sensor_id;sensor_type;location;lat;lon;timestamp;temperature;humidity
67192;HTU21D;54120;53.504;49.426;2023-06-19T00:00:39;8.81;63.57
67192;HTU21D;54120;53.504;49.426;2023-06-19T00:03:07;8.81;63.82
67192;HTU21D;54120;53.504;49.426;2023-06-19T00:05:34;8.80;63.79
67192;HTU21D;54120;53.504;49.426;2023-06-19T00:08:00;8.78;63.57
67192;HTU21D;54120;53.504;49.426;2023-06-19T00:10:26;8.82;63.70
67192;HTU21D;54120;53.504;49.426;2023-06-19T00:12:52;8.82;63.36
67192;HTU21D;54120;53.504;49.426;2023-06-19T00:15:18;8.75;64.08
67192;HTU21D;54120;53.504;49.426;2023-06-19T00:17:44;8.70;64.16
67192;HTU21D;54120;53.504;49.426;2023-06-19T00:20:10;8.65;64.40
67192;HTU21D;54120;53.504;49.426;2023-06-19T00:22:36;8.68;64.97
67192;HTU21D;54120;53.504;49.426;2023-06-19T00:25:02;8.76;64.29
67192;HTU21D;54120;53.504;49.426;2023-06-19T00:27:29;8.80;64.73
67192;HTU21D;54120;53.504;49.426;2023-06-19T00:29:55;8.79;64.04
67192;HTU21D;54120;53.504;49.426;2023-06-19T00:32:28;8.85;63.60
67192;HTU21D;54120;53.504;49.426;2023-06-19T00:34:54;8.77;63.75
67192;HTU21D;54120;53.504;49.426;2023-06-19T00:37:20;8.79;63.78
67192;HTU21D;54120;53.504;49.426;2023-06-19T00:39:46;8.78;63.64
67192;HTU21D;54120;53.504;49.426;2023-06-19T00:42:12;8.78;63.56
67192;HTU21D;54120;53.504;49.426;2023-06-19T00:44:39;8.94;63.12
67192;HTU21D;54120;53.504;49.426;2023-06-19T00:47:06;9.22;62.07
67192;HTU21D;54120;53.504;49.426;2023-06-19T00:49:32;9.52;60.80
67192;HTU21D;54120;53.504;49.426;2023-06-19T00:51:59;9.65;60.70
67192;HTU21D;54120;53.504;49.426;2023-06-19T00:54:25;10.34;58.19
67192;HTU21D;54120;53.504;49.426;2023-06-19T00:56:51;11.49;54.18
67192;HTU21D;54120;53.504;49.426;2023-06-19T00:59:19;12.16;51.57
67192;HTU21D;54120;53.504;49.426;2023-06-19T01:01:46;12.73;49.99
67192;HTU21D;54120;53.504;49.426;2023-06-19T01:04:13;13.52;47.76
67192;HTU21D;54120;53.504;49.426;2023-06-19T01:06:50;13.95;46.16
67192;HTU21D;54120;53.504;49.426;2023-06-19T01:09:20;14.64;44.57
67192;HTU21D;54120;53.504;49.426;2023-06-19T01:11:53;15.15;42.91
67192;HTU21D;54120;53.504;49.426;2023-06-19T01:15:19;15.24;42.42
67192;HTU21D;54120;53.504;49.426;2023-06-19T01:17:21;15.32;42.32
67192;HTU21D;54120;53.504;49.426;2023-06-19T01:19:48;15.26;42.49
67192;HTU21D;54120;53.504;49.426;2023-06-19T01:22:27;15.77;41.41
67192;HTU21D;54120;53.504;49.426;2023-06-19T01:24:53;15.95;40.38
67192;HTU21D;54120;53.504;49.426;2023-06-19T01:27:20;16.74;38.88
67192;HTU21D;54120;53.504;49.426;2023-06-19T01:29:47;16.78;38.82
67192;HTU21D;54120;53.504;49.426;2023-06-19T01:32:18;16.65;38.68
67192;HTU21D;54120;53.504;49.426;2023-06-19T01:34:46;14.48;44.32
67192;HTU21D;54120;53.504;49.426;2023-06-19T01:37:13;12.93;49.02
67192;HTU21D;54120;53.504;49.426;2023-06-19T01:39:40;12.30;51.41
67192;HTU21D;54120;53.504;49.426;2023-06-19T01:42:07;11.93;52.96
67192;HTU21D;54120;53.504;49.426;2023-06-19T01:44:35;11.39;54.23
67192;HTU21D;54120;53.504;49.426;2023-06-19T01:47:11;11.42;54.30
67192;HTU21D;54120;53.504;49.426;2023-06-19T01:49:38;11.22;55.26
67192;HTU21D;54120;53.504;49.426;2023-06-19T01:52:04;11.18;55.49
67192;HTU21D;54120;53.504;49.426;2023-06-19T01:54:30;11.34;55.20
67192;HTU21D;54120;53.504;49.426;2023-06-19T01:56:57;12.36;52.01
67192;HTU21D;54120;53.504;49.426;2023-06-19T01:59:24;12.35;51.73
67192;HTU21D;54120;53.504;49.426;2023-06-19T02:01:50;12.10;52.69
67192;HTU21D;54120;53.504;49.426;2023-06-19T02:04:16;12.59;50.89
67192;HTU21D;54120;53.504;49.426;2023-06-19T02:06:43;14.28;47.96
67192;HTU21D;54120;53.504;49.426;2023-06-19T02:09:10;17.14;38.68
67192;HTU21D;54120;53.504;49.426;2023-06-19T02:11:36;18.29;35.99
67192;HTU21D;54120;53.504;49.426;2023-06-19T02:14:02;18.53;35.05
67192;HTU21D;54120;53.504;49.426;2023-06-19T02:16:29;18.44;35.19
67192;HTU21D;54120;53.504;49.426;2023-06-19T02:18:56;19.63;33.05
67192;HTU21D;54120;53.504;49.426;2023-06-19T02:21:23;19.76;32.47
67192;HTU21D;54120;53.504;49.426;2023-06-19T02:23:49;20.79;31.06
67192;HTU21D;54120;53.504;49.426;2023-06-19T02:26:16;21.87;28.71
67192;HTU21D;54120;53.504;49.426;2023-06-19T02:28:42;21.97;27.84
67192;HTU21D;54120;53.504;49.426;2023-06-19T02:31:08;22.02;28.26
67192;HTU21D;54120;53.504;49.426;2023-06-19T02:33:34;22.60;26.94
67192;HTU21D;54120;53.504;49.426;2023-06-19T02:36:01;22.77;26.74
67192;HTU21D;54120;53.504;49.426;2023-06-19T02:38:27;22.84;26.07
67192;HTU21D;54120;53.504;49.426;2023-06-19T02:40:55;22.65;26.93
67192;HTU21D;54120;53.504;49.426;2023-06-19T02:43:27;22.75;26.39
67192;HTU21D;54120;53.504;49.426;2023-06-19T02:45:53;23.21;25.86
67192;HTU21D;54120;53.504;49.426;2023-06-19T02:48:19;23.34;25.87
67192;HTU21D;54120;53.504;49.426;2023-06-19T02:50:45;22.84;26.02
67192;HTU21D;54120;53.504;49.426;2023-06-19T02:53:11;21.21;29.67
67192;HTU21D;54120;53.504;49.426;2023-06-19T02:55:38;21.81;29.15
67192;HTU21D;54120;53.504;49.426;2023-06-19T02:58:04;23.76;24.88
67192;HTU21D;54120;53.504;49.426;2023-06-19T03:00:30;25.16;22.95
67192;HTU21D;54120;53.504;49.426;2023-06-19T03:02:57;24.32;23.26
67192;HTU21D;54120;53.504;49.426;2023-06-19T03:05:23;24.06;24.30
67192;HTU21D;54120;53.504;49.426;2023-06-19T03:07:50;24.08;24.45
67192;HTU21D;54120;53.504;49.426;2023-06-19T03:10:16;25.33;21.95
67192;HTU21D;54120;53.504;49.426;2023-06-19T03:12:42;25.29;21.47
67192;HTU21D;54120;53.504;49.426;2023-06-19T03:15:09;24.25;23.70
67192;HTU21D;54120;53.504;49.426;2023-06-19T03:17:35;25.31;22.25
67192;HTU21D;54120;53.504;49.426;2023-06-19T03:20:01;24.11;23.98
67192;HTU21D;54120;53.504;49.426;2023-06-19T03:22:27;24.56;22.54
67192;HTU21D;54120;53.504;49.426;2023-06-19T03:24:54;23.22;25.32
67192;HTU21D;54120;53.504;49.426;2023-06-19T03:27:20;23.91;23.19
67192;HTU21D;54120;53.504;49.426;2023-06-19T03:29:46;23.46;23.99
67192;HTU21D;54120;53.504;49.426;2023-06-19T03:32:13;23.26;24.91
67192;HTU21D;54120;53.504;49.426;2023-06-19T03:34:39;25.34;21.15
67192;HTU21D;54120;53.504;49.426;2023-06-19T03:37:05;25.76;20.02
67192;HTU21D;54120;53.504;49.426;2023-06-19T03:39:32;23.95;22.33
67192;HTU21D;54120;53.504;49.426;2023-06-19T03:41:58;23.96;22.96
67192;HTU21D;54120;53.504;49.426;2023-06-19T03:44:24;25.47;20.07
67192;HTU21D;54120;53.504;49.426;2023-06-19T03:46:50;25.88;19.79
67192;HTU21D;54120;53.504;49.426;2023-06-19T03:49:17;26.55;19.02
67192;HTU21D;54120;53.504;49.426;2023-06-19T03:51:43;27.07;18.38
67192;HTU21D;54120;53.504;49.426;2023-06-19T03:54:10;27.69;17.96
67192;HTU21D;54120;53.504;49.426;2023-06-19T03:56:37;24.70;20.30
67192;HTU21D;54120;53.504;49.426;2023-06-19T03:59:03;23.97;22.03
67192;HTU21D;54120;53.504;49.426;2023-06-19T04:01:29;25.51;20.03
67192;HTU21D;54120;53.504;49.426;2023-06-19T04:03:55;26.22;18.60
67192;HTU21D;54120;53.504;49.426;2023-06-19T04:06:22;25.68;19.48
67192;HTU21D;54120;53.504;49.426;2023-06-19T04:08:48;24.46;21.53
67192;HTU21D;54120;53.504;49.426;2023-06-19T04:11:15;23.21;22.94
67192;HTU21D;54120;53.504;49.426;2023-06-19T04:13:41;22.10;25.11
67192;HTU21D;54120;53.504;49.426;2023-06-19T04:16:08;24.02;22.82
67192;HTU21D;54120;53.504;49.426;2023-06-19T04:18:34;24.83;20.03
67192;HTU21D;54120;53.504;49.426;2023-06-19T04:21:00;22.71;22.98
67192;HTU21D;54120;53.504;49.426;2023-06-19T04:23:27;21.48;25.36
67192;HTU21D;54120;53.504;49.426;2023-06-19T04:25:53;21.44;24.94
67192;HTU21D;54120;53.504;49.426;2023-06-19T04:28:20;22.57;23.05
67192;HTU21D;54120;53.504;49.426;2023-06-19T04:30:46;23.60;21.60
67192;HTU21D;54120;53.504;49.426;2023-06-19T04:33:13;24.71;19.63
67192;HTU21D;54120;53.504;49.426;2023-06-19T04:35:40;24.47;19.30
67192;HTU21D;54120;53.504;49.426;2023-06-19T04:38:07;24.14;20.77
67192;HTU21D;54120;53.504;49.426;2023-06-19T04:40:33;23.62;20.25
67192;HTU21D;54120;53.504;49.426;2023-06-19T04:43:01;23.40;20.84
67192;HTU21D;54120;53.504;49.426;2023-06-19T04:45:28;23.58;20.54
67192;HTU21D;54120;53.504;49.426;2023-06-19T04:47:55;24.32;19.79
67192;HTU21D;54120;53.504;49.426;2023-06-19T04:50:21;24.94;18.83
67192;HTU21D;54120;53.504;49.426;2023-06-19T04:52:47;24.34;19.28
67192;HTU21D;54120;53.504;49.426;2023-06-19T04:55:16;24.28;20.12
67192;HTU21D;54120;53.504;49.426;2023-06-19T04:57:42;25.10;18.75
67192;HTU21D;54120;53.504;49.426;2023-06-19T05:00:08;24.88;18.90
67192;HTU21D;54120;53.504;49.426;2023-06-19T05:02:38;25.05;19.29
67192;HTU21D;54120;53.504;49.426;2023-06-19T05:05:05;25.65;17.54
67192;HTU21D;54120;53.504;49.426;2023-06-19T05:07:32;24.42;19.64
67192;HTU21D;54120;53.504;49.426;2023-06-19T05:09:59;24.62;18.62
67192;HTU21D;54120;53.504;49.426;2023-06-19T05:12:25;24.00;20.17
67192;HTU21D;54120;53.504;49.426;2023-06-19T05:14:51;23.65;20.68
67192;HTU21D;54120;53.504;49.426;2023-06-19T05:17:18;23.82;20.70
67192;HTU21D;54120;53.504;49.426;2023-06-19T05:19:44;24.04;19.61
67192;HTU21D;54120;53.504;49.426;2023-06-19T05:22:10;23.21;21.20
67192;HTU21D;54120;53.504;49.426;2023-06-19T05:24:37;24.42;20.14
67192;HTU21D;54120;53.504;49.426;2023-06-19T05:27:03;25.32;18.51
67192;HTU21D;54120;53.504;49.426;2023-06-19T05:29:30;25.86;17.87
67192;HTU21D;54120;53.504;49.426;2023-06-19T05:31:56;25.07;19.08
67192;HTU21D;54120;53.504;49.426;2023-06-19T05:34:23;23.27;21.76
67192;HTU21D;54120;53.504;49.426;2023-06-19T05:36:49;23.58;20.69
67192;HTU21D;54120;53.504;49.426;2023-06-19T05:39:15;23.21;21.61
67192;HTU21D;54120;53.504;49.426;2023-06-19T05:41:44;24.98;18.70
67192;HTU21D;54120;53.504;49.426;2023-06-19T05:44:14;24.01;19.73
67192;HTU21D;54120;53.504;49.426;2023-06-19T05:46:42;24.69;20.18
67192;HTU21D;54120;53.504;49.426;2023-06-19T05:49:09;23.64;21.08
67192;HTU21D;54120;53.504;49.426;2023-06-19T05:51:35;24.71;18.72
67192;HTU21D;54120;53.504;49.426;2023-06-19T05:54:01;24.24;20.05
67192;HTU21D;54120;53.504;49.426;2023-06-19T05:56:30;24.72;19.22
67192;HTU21D;54120;53.504;49.426;2023-06-19T05:58:57;25.00;18.37
67192;HTU21D;54120;53.504;49.426;2023-06-19T06:01:23;25.52;18.89
67192;HTU21D;54120;53.504;49.426;2023-06-19T06:03:50;25.30;18.51
67192;HTU21D;54120;53.504;49.426;2023-06-19T06:06:16;24.65;19.82
67192;HTU21D;54120;53.504;49.426;2023-06-19T06:08:43;25.02;19.09
67192;HTU21D;54120;53.504;49.426;2023-06-19T06:11:09;24.60;19.47
67192;HTU21D;54120;53.504;49.426;2023-06-19T06:13:35;24.06;19.59
67192;HTU21D;54120;53.504;49.426;2023-06-19T06:16:01;24.03;20.53
67192;HTU21D;54120;53.504;49.426;2023-06-19T06:18:28;24.19;18.50
67192;HTU21D;54120;53.504;49.426;2023-06-19T06:20:54;24.32;18.81
67192;HTU21D;54120;53.504;49.426;2023-06-19T06:23:20;23.95;19.02
67192;HTU21D;54120;53.504;49.426;2023-06-19T06:25:46;21.87;22.40
67192;HTU21D;54120;53.504;49.426;2023-06-19T06:28:12;22.53;21.40
67192;HTU21D;54120;53.504;49.426;2023-06-19T06:30:38;22.41;21.62
67192;HTU21D;54120;53.504;49.426;2023-06-19T06:33:05;23.35;19.57
67192;HTU21D;54120;53.504;49.426;2023-06-19T06:35:31;24.46;18.37
67192;HTU21D;54120;53.504;49.426;2023-06-19T06:37:57;24.51;17.47
67192;HTU21D;54120;53.504;49.426;2023-06-19T06:40:26;23.45;18.85
67192;HTU21D;54120;53.504;49.426;2023-06-19T06:42:53;23.87;18.48
67192;HTU21D;54120;53.504;49.426;2023-06-19T06:45:19;24.66;17.87
67192;HTU21D;54120;53.504;49.426;2023-06-19T06:47:47;24.93;17.58
67192;HTU21D;54120;53.504;49.426;2023-06-19T06:50:13;22.46;19.65
67192;HTU21D;54120;53.504;49.426;2023-06-19T06:52:39;23.97;17.10
67192;HTU21D;54120;53.504;49.426;2023-06-19T06:55:05;24.49;17.16
67192;HTU21D;54120;53.504;49.426;2023-06-19T06:57:32;22.56;19.53
67192;HTU21D;54120;53.504;49.426;2023-06-19T06:59:58;20.28;22.77
67192;HTU21D;54120;53.504;49.426;2023-06-19T07:02:24;22.16;20.64
67192;HTU21D;54120;53.504;49.426;2023-06-19T07:04:50;20.00;24.33
67192;HTU21D;54120;53.504;49.426;2023-06-19T07:07:17;19.27;26.94
67192;HTU21D;54120;53.504;49.426;2023-06-19T07:09:43;19.14;27.62
67192;HTU21D;54120;53.504;49.426;2023-06-19T07:12:09;19.74;27.65
67192;HTU21D;54120;53.504;49.426;2023-06-19T07:14:36;20.04;26.84
67192;HTU21D;54120;53.504;49.426;2023-06-19T07:17:02;20.17;27.42
67192;HTU21D;54120;53.504;49.426;2023-06-19T07:19:28;19.73;27.94
67192;HTU21D;54120;53.504;49.426;2023-06-19T07:21:55;19.63;28.91
67192;HTU21D;54120;53.504;49.426;2023-06-19T07:24:21;19.16;28.53
67192;HTU21D;54120;53.504;49.426;2023-06-19T07:26:49;19.10;28.34
67192;HTU21D;54120;53.504;49.426;2023-06-19T07:29:15;19.17;28.45
67192;HTU21D;54120;53.504;49.426;2023-06-19T07:31:42;19.18;28.20
67192;HTU21D;54120;53.504;49.426;2023-06-19T07:34:08;18.81;29.13
67192;HTU21D;54120;53.504;49.426;2023-06-19T07:36:34;18.56;30.15
67192;HTU21D;54120;53.504;49.426;2023-06-19T07:39:01;18.67;29.93
67192;HTU21D;54120;53.504;49.426;2023-06-19T07:41:27;18.49;29.86
67192;HTU21D;54120;53.504;49.426;2023-06-19T07:43:53;18.77;27.00
67192;HTU21D;54120;53.504;49.426;2023-06-19T07:46:19;19.00;27.65
67192;HTU21D;54120;53.504;49.426;2023-06-19T07:48:45;19.71;26.77
67192;HTU21D;54120;53.504;49.426;2023-06-19T07:51:11;20.57;25.00
67192;HTU21D;54120;53.504;49.426;2023-06-19T07:53:37;19.97;25.81
67192;HTU21D;54120;53.504;49.426;2023-06-19T07:56:05;19.25;27.04
67192;HTU21D;54120;53.504;49.426;2023-06-19T07:58:31;18.72;28.29
67192;HTU21D;54120;53.504;49.426;2023-06-19T08:00:57;19.27;27.22
67192;HTU21D;54120;53.504;49.426;2023-06-19T08:03:24;19.92;26.49
67192;HTU21D;54120;53.504;49.426;2023-06-19T08:05:50;20.53;24.76
67192;HTU21D;54120;53.504;49.426;2023-06-19T08:08:16;20.32;24.81
67192;HTU21D;54120;53.504;49.426;2023-06-19T08:10:42;20.37;25.55
67192;HTU21D;54120;53.504;49.426;2023-06-19T08:13:09;20.26;24.50
67192;HTU21D;54120;53.504;49.426;2023-06-19T08:15:37;19.75;26.63
67192;HTU21D;54120;53.504;49.426;2023-06-19T08:18:03;19.86;26.83
67192;HTU21D;54120;53.504;49.426;2023-06-19T08:20:30;19.56;28.36
67192;HTU21D;54120;53.504;49.426;2023-06-19T08:22:56;19.53;28.32
67192;HTU21D;54120;53.504;49.426;2023-06-19T08:25:22;19.70;28.19
67192;HTU21D;54120;53.504;49.426;2023-06-19T08:27:48;19.14;29.18
67192;HTU21D;54120;53.504;49.426;2023-06-19T08:30:15;18.83;29.43
67192;HTU21D;54120;53.504;49.426;2023-06-19T08:32:43;18.61;29.39
67192;HTU21D;54120;53.504;49.426;2023-06-19T08:35:09;18.14;30.31
67192;HTU21D;54120;53.504;49.426;2023-06-19T08:37:35;18.11;31.08
67192;HTU21D;54120;53.504;49.426;2023-06-19T08:40:01;18.22;31.49
67192;HTU21D;54120;53.504;49.426;2023-06-19T08:42:28;17.93;32.60
67192;HTU21D;54120;53.504;49.426;2023-06-19T08:44:54;18.13;32.47
67192;HTU21D;54120;53.504;49.426;2023-06-19T08:47:20;17.75;33.43
67192;HTU21D;54120;53.504;49.426;2023-06-19T08:49:46;17.99;33.70
67192;HTU21D;54120;53.504;49.426;2023-06-19T08:52:13;18.15;32.47
67192;HTU21D;54120;53.504;49.426;2023-06-19T08:54:39;18.05;32.00
67192;HTU21D;54120;53.504;49.426;2023-06-19T08:57:10;18.61;32.00
67192;HTU21D;54120;53.504;49.426;2023-06-19T08:59:38;19.27;29.48
67192;HTU21D;54120;53.504;49.426;2023-06-19T09:02:04;18.88;30.18
67192;HTU21D;54120;53.504;49.426;2023-06-19T09:04:30;18.99;30.10
67192;HTU21D;54120;53.504;49.426;2023-06-19T09:06:58;18.94;29.92
67192;HTU21D;54120;53.504;49.426;2023-06-19T09:09:26;18.66;31.08
67192;HTU21D;54120;53.504;49.426;2023-06-19T09:12:05;19.10;30.66
67192;HTU21D;54120;53.504;49.426;2023-06-19T09:14:37;18.46;31.95
67192;HTU21D;54120;53.504;49.426;2023-06-19T09:17:05;18.54;31.50
67192;HTU21D;54120;53.504;49.426;2023-06-19T09:19:35;19.33;30.87
67192;HTU21D;54120;53.504;49.426;2023-06-19T09:22:02;20.22;28.27
67192;HTU21D;54120;53.504;49.426;2023-06-19T09:24:37;19.60;27.79
67192;HTU21D;54120;53.504;49.426;2023-06-19T09:27:11;19.60;28.93
67192;HTU21D;54120;53.504;49.426;2023-06-19T09:29:48;19.86;28.20
67192;HTU21D;54120;53.504;49.426;2023-06-19T09:34:44;19.29;29.63
67192;HTU21D;54120;53.504;49.426;2023-06-19T09:37:10;19.15;30.36
67192;HTU21D;54120;53.504;49.426;2023-06-19T09:39:37;19.33;30.51
67192;HTU21D;54120;53.504;49.426;2023-06-19T09:42:08;19.46;29.06
67192;HTU21D;54120;53.504;49.426;2023-06-19T09:44:42;18.56;30.89
67192;HTU21D;54120;53.504;49.426;2023-06-19T09:47:15;18.72;31.28
67192;HTU21D;54120;53.504;49.426;2023-06-19T09:49:53;19.37;29.68
67192;HTU21D;54120;53.504;49.426;2023-06-19T09:52:21;19.48;29.94
67192;HTU21D;54120;53.504;49.426;2023-06-19T09:54:52;20.05;28.47
67192;HTU21D;54120;53.504;49.426;2023-06-19T09:57:18;20.07;28.79
67192;HTU21D;54120;53.504;49.426;2023-06-19T09:59:55;19.60;29.50
67192;HTU21D;54120;53.504;49.426;2023-06-19T10:02:26;19.66;29.64
67192;HTU21D;54120;53.504;49.426;2023-06-19T10:04:54;19.88;30.07
67192;HTU21D;54120;53.504;49.426;2023-06-19T10:07:26;20.14;29.51
67192;HTU21D;54120;53.504;49.426;2023-06-19T10:12:36;18.72;31.03
67192;HTU21D;54120;53.504;49.426;2023-06-19T10:17:41;18.88;30.68
67192;HTU21D;54120;53.504;49.426;2023-06-19T10:20:35;18.91;31.70
67192;HTU21D;54120;53.504;49.426;2023-06-19T10:23:14;18.84;31.80
67192;HTU21D;54120;53.504;49.426;2023-06-19T10:25:45;18.78;32.71
67192;HTU21D;54120;53.504;49.426;2023-06-19T10:30:43;18.71;32.28
67192;HTU21D;54120;53.504;49.426;2023-06-19T10:33:10;18.61;32.52
67192;HTU21D;54120;53.504;49.426;2023-06-19T10:35:41;18.40;33.87
67192;HTU21D;54120;53.504;49.426;2023-06-19T10:38:08;18.35;33.97
67192;HTU21D;54120;53.504;49.426;2023-06-19T10:40:37;18.73;32.98
67192;HTU21D;54120;53.504;49.426;2023-06-19T10:43:04;19.02;32.06
67192;HTU21D;54120;53.504;49.426;2023-06-19T10:45:30;19.57;30.79
67192;HTU21D;54120;53.504;49.426;2023-06-19T10:48:00;19.08;31.79
67192;HTU21D;54120;53.504;49.426;2023-06-19T10:50:27;18.97;31.15
67192;HTU21D;54120;53.504;49.426;2023-06-19T10:52:53;19.10;31.37
67192;HTU21D;54120;53.504;49.426;2023-06-19T10:55:22;18.89;30.45
67192;HTU21D;54120;53.504;49.426;2023-06-19T10:57:50;18.72;31.73
67192;HTU21D;54120;53.504;49.426;2023-06-19T11:00:27;18.93;31.32
67192;HTU21D;54120;53.504;49.426;2023-06-19T11:02:55;18.82;31.87
67192;HTU21D;54120;53.504;49.426;2023-06-19T11:05:23;19.21;31.32
67192;HTU21D;54120;53.504;49.426;2023-06-19T11:08:00;19.31;31.73
67192;HTU21D;54120;53.504;49.426;2023-06-19T11:10:28;19.07;32.02
67192;HTU21D;54120;53.504;49.426;2023-06-19T11:12:56;19.10;31.60
67192;HTU21D;54120;53.504;49.426;2023-06-19T11:15:32;18.82;32.52
67192;HTU21D;54120;53.504;49.426;2023-06-19T11:18:02;18.55;31.93
67192;HTU21D;54120;53.504;49.426;2023-06-19T11:20:29;18.57;32.35
67192;HTU21D;54120;53.504;49.426;2023-06-19T11:22:59;18.93;32.04
67192;HTU21D;54120;53.504;49.426;2023-06-19T11:25:36;19.11;31.95
67192;HTU21D;54120;53.504;49.426;2023-06-19T11:28:13;19.32;31.79
67192;HTU21D;54120;53.504;49.426;2023-06-19T11:30:40;19.70;30.82
67192;HTU21D;54120;53.504;49.426;2023-06-19T11:33:18;19.72;30.90
67192;HTU21D;54120;53.504;49.426;2023-06-19T11:35:52;19.24;31.41
67192;HTU21D;54120;53.504;49.426;2023-06-19T11:40:44;18.81;32.81
67192;HTU21D;54120;53.504;49.426;2023-06-19T11:43:11;18.70;32.61
67192;HTU21D;54120;53.504;49.426;2023-06-19T11:45:48;18.38;32.78
67192;HTU21D;54120;53.504;49.426;2023-06-19T11:48:22;18.15;33.28
67192;HTU21D;54120;53.504;49.426;2023-06-19T11:50:48;18.40;33.41
67192;HTU21D;54120;53.504;49.426;2023-06-19T11:53:15;18.68;33.25
67192;HTU21D;54120;53.504;49.426;2023-06-19T11:55:41;18.63;33.00
67192;HTU21D;54120;53.504;49.426;2023-06-19T11:58:07;18.46;33.53
67192;HTU21D;54120;53.504;49.426;2023-06-19T12:00:33;18.50;34.16
67192;HTU21D;54120;53.504;49.426;2023-06-19T12:02:59;18.18;34.00
67192;HTU21D;54120;53.504;49.426;2023-06-19T12:05:26;18.26;34.15
67192;HTU21D;54120;53.504;49.426;2023-06-19T12:07:52;18.64;33.92
67192;HTU21D;54120;53.504;49.426;2023-06-19T12:10:18;18.65;33.09
67192;HTU21D;54120;53.504;49.426;2023-06-19T12:12:44;18.98;32.06
67192;HTU21D;54120;53.504;49.426;2023-06-19T12:15:10;18.83;31.61
67192;HTU21D;54120;53.504;49.426;2023-06-19T12:17:37;18.72;31.15
67192;HTU21D;54120;53.504;49.426;2023-06-19T12:20:03;18.61;31.13
67192;HTU21D;54120;53.504;49.426;2023-06-19T12:22:34;18.56;31.89
67192;HTU21D;54120;53.504;49.426;2023-06-19T12:25:00;18.62;31.62
67192;HTU21D;54120;53.504;49.426;2023-06-19T12:27:27;18.84;32.35
67192;HTU21D;54120;53.504;49.426;2023-06-19T12:29:53;18.77;32.47
67192;HTU21D;54120;53.504;49.426;2023-06-19T12:32:19;18.96;31.47
67192;HTU21D;54120;53.504;49.426;2023-06-19T12:34:47;19.03;31.80
67192;HTU21D;54120;53.504;49.426;2023-06-19T12:37:16;19.36;31.54
67192;HTU21D;54120;53.504;49.426;2023-06-19T12:39:44;19.51;31.06
67192;HTU21D;54120;53.504;49.426;2023-06-19T12:42:10;19.11;31.92
67192;HTU21D;54120;53.504;49.426;2023-06-19T12:44:40;19.31;32.73
67192;HTU21D;54120;53.504;49.426;2023-06-19T12:47:07;19.16;32.23
67192;HTU21D;54120;53.504;49.426;2023-06-19T12:49:34;19.05;32.89
67192;HTU21D;54120;53.504;49.426;2023-06-19T12:52:00;18.84;33.32
67192;HTU21D;54120;53.504;49.426;2023-06-19T12:54:26;18.70;33.47
67192;HTU21D;54120;53.504;49.426;2023-06-19T12:56:53;18.30;34.35
67192;HTU21D;54120;53.504;49.426;2023-06-19T12:59:19;17.94;34.48
67192;HTU21D;54120;53.504;49.426;2023-06-19T13:01:45;17.62;34.82
67192;HTU21D;54120;53.504;49.426;2023-06-19T13:04:12;17.64;34.89
67192;HTU21D;54120;53.504;49.426;2023-06-19T13:06:39;17.70;35.18
67192;HTU21D;54120;53.504;49.426;2023-06-19T13:09:06;17.84;34.75
67192;HTU21D;54120;53.504;49.426;2023-06-19T13:11:33;17.91;35.00
67192;HTU21D;54120;53.504;49.426;2023-06-19T13:14:02;18.12;33.99
67192;HTU21D;54120;53.504;49.426;2023-06-19T13:16:28;18.21;34.53
67192;HTU21D;54120;53.504;49.426;2023-06-19T13:18:54;18.27;34.53
67192;HTU21D;54120;53.504;49.426;2023-06-19T13:21:20;18.18;34.48
67192;HTU21D;54120;53.504;49.426;2023-06-19T13:23:47;18.13;35.03
67192;HTU21D;54120;53.504;49.426;2023-06-19T13:26:14;18.37;34.86
67192;HTU21D;54120;53.504;49.426;2023-06-19T13:28:41;18.38;34.58
67192;HTU21D;54120;53.504;49.426;2023-06-19T13:31:07;18.57;34.92
67192;HTU21D;54120;53.504;49.426;2023-06-19T13:33:34;18.57;34.92
67192;HTU21D;54120;53.504;49.426;2023-06-19T13:36:00;18.49;35.28
67192;HTU21D;54120;53.504;49.426;2023-06-19T13:38:26;18.51;35.37
67192;HTU21D;54120;53.504;49.426;2023-06-19T13:40:52;18.14;36.34
67192;HTU21D;54120;53.504;49.426;2023-06-19T13:43:19;18.00;36.49
67192;HTU21D;54120;53.504;49.426;2023-06-19T13:45:49;17.96;36.61
67192;HTU21D;54120;53.504;49.426;2023-06-19T13:48:16;17.77;36.21
67192;HTU21D;54120;53.504;49.426;2023-06-19T13:50:42;17.60;36.82
67192;HTU21D;54120;53.504;49.426;2023-06-19T13:53:08;17.80;36.47
67192;HTU21D;54120;53.504;49.426;2023-06-19T13:55:34;17.84;36.33
67192;HTU21D;54120;53.504;49.426;2023-06-19T13:58:01;17.93;36.63
67192;HTU21D;54120;53.504;49.426;2023-06-19T14:00:27;17.73;37.08
67192;HTU21D;54120;53.504;49.426;2023-06-19T14:02:53;17.77;37.27
67192;HTU21D;54120;53.504;49.426;2023-06-19T14:05:20;17.94;37.13
67192;HTU21D;54120;53.504;49.426;2023-06-19T14:07:47;18.40;36.11
67192;HTU21D;54120;53.504;49.426;2023-06-19T14:10:13;18.56;35.60
67192;HTU21D;54120;53.504;49.426;2023-06-19T14:12:39;18.14;36.11
67192;HTU21D;54120;53.504;49.426;2023-06-19T14:15:06;17.50;38.06
67192;HTU21D;54120;53.504;49.426;2023-06-19T14:17:33;17.13;38.64
67192;HTU21D;54120;53.504;49.426;2023-06-19T14:20:00;17.03;39.01
67192;HTU21D;54120;53.504;49.426;2023-06-19T14:22:26;17.28;38.21
67192;HTU21D;54120;53.504;49.426;2023-06-19T14:24:53;17.49;37.69
67192;HTU21D;54120;53.504;49.426;2023-06-19T14:27:26;17.46;38.38
67192;HTU21D;54120;53.504;49.426;2023-06-19T14:29:54;17.45;38.75
67192;HTU21D;54120;53.504;49.426;2023-06-19T14:32:22;17.55;38.20
67192;HTU21D;54120;53.504;49.426;2023-06-19T14:34:52;17.34;38.69
67192;HTU21D;54120;53.504;49.426;2023-06-19T14:37:18;17.58;39.08
67192;HTU21D;54120;53.504;49.426;2023-06-19T14:39:44;17.99;37.40
67192;HTU21D;54120;53.504;49.426;2023-06-19T14:42:10;17.96;37.13
67192;HTU21D;54120;53.504;49.426;2023-06-19T14:44:36;17.62;38.20
67192;HTU21D;54120;53.504;49.426;2023-06-19T14:47:03;17.45;38.75
67192;HTU21D;54120;53.504;49.426;2023-06-19T14:49:29;17.14;39.17
67192;HTU21D;54120;53.504;49.426;2023-06-19T14:51:56;16.95;39.93
67192;HTU21D;54120;53.504;49.426;2023-06-19T14:54:22;16.96;40.46
67192;HTU21D;54120;53.504;49.426;2023-06-19T14:56:49;17.05;39.91
67192;HTU21D;54120;53.504;49.426;2023-06-19T14:59:17;17.29;40.03
67192;HTU21D;54120;53.504;49.426;2023-06-19T15:01:44;17.52;39.29
67192;HTU21D;54120;53.504;49.426;2023-06-19T15:04:10;17.52;39.23
67192;HTU21D;54120;53.504;49.426;2023-06-19T15:06:36;17.48;39.00
67192;HTU21D;54120;53.504;49.426;2023-06-19T15:09:03;17.61;38.88
67192;HTU21D;54120;53.504;49.426;2023-06-19T15:11:29;17.50;38.55
67192;HTU21D;54120;53.504;49.426;2023-06-19T15:13:55;17.22;39.33
67192;HTU21D;54120;53.504;49.426;2023-06-19T15:16:21;17.01;39.89